Lake Tacoma, Illinois
Current Conditions -  °F | °C
As of 12:52 PM on Sunday 21 Dec 2014 (Local Time) from KMDH Reporting Station
Overcast Overcast  
Wind Chill: 42°   Ceiling: 4600
Heat Index: 45°   Visibility: 10mi
Dew Point: 28°   Wind: 6mph
Humidity: 52%   Direction: 130°SE
Pressure: 30.14"   Gusts: NA
Location:  37.7248°N, 89.197°W
Report Text: KMDH 211852Z AUTO 13005KT 10SM OVC046 07/M02 A3014 RMK AO2 SLP208 T00721022
Loading
Personal Weather Stations






























Interactive Weather Map New forecast layout! Learn more

10-Day Weather Forecast

Advertisements
Track Severe Weather on mobile